createdAt,value
2018-11-29T00:03:39.586Z,37.17
2018-11-29T00:08:19.731Z,37.53
2018-11-29T00:12:59.760Z,38.30
2018-11-29T00:17:39.705Z,36.70
2018-11-29T00:22:19.699Z,43.53
2018-11-29T00:27:00.241Z,39.43
2018-11-29T00:31:40.459Z,43.83
2018-11-29T00:36:20.424Z,38.53
2018-11-29T00:41:00.619Z,39.83
2018-11-29T00:45:40.551Z,40.10
2018-11-29T00:50:21.063Z,39.90
2018-11-29T00:55:02.251Z,37.97
2018-11-29T00:59:42.400Z,39.07
2018-11-29T01:04:22.391Z,36.53
2018-11-29T01:09:02.022Z,37.57
2018-11-29T01:13:42.028Z,37.03
2018-11-29T01:18:22.144Z,37.50
2018-11-29T01:23:01.972Z,34.03
2018-11-29T01:27:43.560Z,31.63
2018-11-29T01:32:23.568Z,35.43
2018-11-29T01:37:04.004Z,36.43
2018-11-29T01:41:44.135Z,40.53
2018-11-29T01:46:24.096Z,34.73
2018-11-29T01:51:04.266Z,41.17
2018-11-29T01:55:44.435Z,38.57
2018-11-29T02:00:24.111Z,40.47
2018-11-29T02:05:04.465Z,39.10
2018-11-29T02:09:45.015Z,39.37
2018-11-29T02:14:25.003Z,37.00
2018-11-29T02:19:05.288Z,39.00
2018-11-29T02:23:44.950Z,39.90
2018-11-29T02:28:25.056Z,38.90
2018-11-29T02:33:05.185Z,37.90
2018-11-29T02:37:45.292Z,39.40
2018-11-29T02:42:25.141Z,36.27
2018-11-29T02:47:04.932Z,38.00
2018-11-29T02:51:45.058Z,39.90
2018-11-29T02:56:25.150Z,37.50
2018-11-29T03:01:05.280Z,42.90
2018-11-29T03:05:45.471Z,42.10
2018-11-29T03:10:27.464Z,44.27
2018-11-29T03:15:16.040Z,41.33
2018-11-29T03:19:56.208Z,39.17
2018-11-29T03:24:36.391Z,40.80
2018-11-29T03:29:16.410Z,43.13
2018-11-29T03:33:56.411Z,32.80
2018-11-29T03:38:36.488Z,30.33
2018-11-29T03:43:17.113Z,39.37
2018-11-29T03:47:57.193Z,40.63
2018-11-29T03:52:37.492Z,42.73
2018-11-29T03:57:17.566Z,33.90
2018-11-29T04:01:57.743Z,41.93
2018-11-29T04:06:37.797Z,42.50
2018-11-29T04:11:18.115Z,37.93
2018-11-29T04:15:57.926Z,35.80
2018-11-29T04:20:37.842Z,40.73
2018-11-29T04:25:17.588Z,133.77
2018-11-29T04:29:58.069Z,75.47
2018-11-29T04:34:38.645Z,46.47
2018-11-29T04:39:18.906Z,48.10
2018-11-29T04:43:58.771Z,44.07
2018-11-29T04:48:39.129Z,39.23
2018-11-29T04:53:19.116Z,35.73
2018-11-29T04:57:59.165Z,37.57
2018-11-29T05:02:39.092Z,63.13
2018-11-29T05:07:19.252Z,53.90
2018-11-29T05:11:59.492Z,42.07
2018-11-29T05:16:39.619Z,40.47
2018-11-29T05:21:19.813Z,40.83
2018-11-29T05:25:59.992Z,40.80
2018-11-29T05:30:39.776Z,42.10
2018-11-29T05:35:19.749Z,37.00
2018-11-29T05:40:00.108Z,39.27
2018-11-29T05:44:40.056Z,148.07
2018-11-29T05:49:20.928Z,76.93
2018-11-29T05:54:00.924Z,86.20
2018-11-29T05:58:41.268Z,78.50
2018-11-29T06:03:21.268Z,118.63
2018-11-29T06:08:01.652Z,75.00
2018-11-29T06:12:41.735Z,81.57
2018-11-29T06:17:21.511Z,89.70
2018-11-29T06:22:01.427Z,62.70
2018-11-29T06:26:41.788Z,49.47
2018-11-29T06:31:22.029Z,48.93
2018-11-29T06:36:02.219Z,140.27
2018-11-29T06:40:42.361Z,115.37
2018-11-29T06:45:22.668Z,57.47
2018-11-29T06:50:02.619Z,55.03
2018-11-29T06:54:42.417Z,55.47
2018-11-29T06:59:22.660Z,51.60
2018-11-29T07:04:02.967Z,63.93
2018-11-29T07:08:43.630Z,63.53
2018-11-29T07:13:23.730Z,39.07
2018-11-29T07:18:03.874Z,76.43
2018-11-29T07:22:44.142Z,92.87
2018-11-29T07:27:24.752Z,70.40
2018-11-29T07:32:05.122Z,65.83
2018-11-29T07:36:45.631Z,80.87
2018-11-29T07:41:25.736Z,81.03
2018-11-29T07:46:06.891Z,65.60
2018-11-29T07:50:46.887Z,67.00
2018-11-29T07:55:26.952Z,65.93
2018-11-29T08:00:09.260Z,70.20
2018-11-29T08:04:49.247Z,65.27
2018-11-29T08:09:30.014Z,68.00
2018-11-29T08:14:10.232Z,60.83
2018-11-29T08:18:50.303Z,140.40
2018-11-29T08:23:30.194Z,62.43
2018-11-29T08:28:10.364Z,50.93
2018-11-29T08:32:51.673Z,56.97
2018-11-29T08:37:31.757Z,58.47
2018-11-29T08:42:11.962Z,44.37
2018-11-29T08:46:51.758Z,44.27
2018-11-29T08:51:32.193Z,36.53
2018-11-29T08:56:12.212Z,32.03
2018-11-29T09:00:52.179Z,29.60
2018-11-29T09:05:34.023Z,31.00
2018-11-29T09:10:15.024Z,32.10
2018-11-29T09:14:55.056Z,32.23
2018-11-29T09:19:37.531Z,31.63
2018-11-29T09:24:15.274Z,30.27
2018-11-29T09:28:55.261Z,31.27
2018-11-29T09:33:35.334Z,30.00
2018-11-29T09:38:15.463Z,31.73
2018-11-29T09:42:55.588Z,32.73
2018-11-29T09:47:35.523Z,31.10
2018-11-29T09:52:15.811Z,32.73
2018-11-29T09:56:55.775Z,31.43
2018-11-29T10:01:35.532Z,28.03
2018-11-29T10:06:15.476Z,26.63
2018-11-29T10:10:55.645Z,28.23
2018-11-29T10:15:36.267Z,32.47
2018-11-29T10:20:16.188Z,29.10
2018-11-29T10:24:56.218Z,29.50
2018-11-29T10:29:36.119Z,28.47
2018-11-29T10:34:16.320Z,29.47
2018-11-29T10:38:56.585Z,31.53
2018-11-29T10:43:37.068Z,27.83
2018-11-29T10:48:21.400Z,29.10
2018-11-29T10:53:01.496Z,28.73
2018-11-29T10:57:41.371Z,32.90
2018-11-29T11:02:26.793Z,27.73
2018-11-29T11:07:06.920Z,31.03
2018-11-29T11:11:47.072Z,25.00
2018-11-29T11:16:26.873Z,24.00
2018-11-29T11:21:07.003Z,23.13
2018-11-29T11:25:47.064Z,39.92
2018-11-29T11:30:27.519Z,28.37
2018-11-29T11:35:08.255Z,24.43
2018-11-29T11:39:48.141Z,25.43
2018-11-29T11:44:28.056Z,24.37
2018-11-29T11:49:08.064Z,25.87
2018-11-29T11:53:48.195Z,29.43
2018-11-29T11:58:27.988Z,26.73
2018-11-29T12:03:12.661Z,24.67
2018-11-29T12:07:53.380Z,23.53
2018-11-29T12:12:33.275Z,23.23
2018-11-29T12:17:13.476Z,28.10
2018-11-29T12:21:53.228Z,24.13
2018-11-29T12:26:33.304Z,24.50
2018-11-29T12:31:13.473Z,26.10
2018-11-29T12:35:53.281Z,24.30
2018-11-29T12:40:33.381Z,22.43
2018-11-29T12:45:14.243Z,23.90
2018-11-29T12:49:54.252Z,20.70
2018-11-29T12:54:34.037Z,20.62
2018-11-29T12:59:14.304Z,18.85
2018-11-29T13:03:54.290Z,19.67
2018-11-29T13:08:34.555Z,17.55
2018-11-29T13:13:15.220Z,20.43
2018-11-29T13:17:56.185Z,17.82
2018-11-29T13:22:36.593Z,19.85
2018-11-29T13:27:17.184Z,16.70
2018-11-29T13:31:57.985Z,15.28
2018-11-29T13:36:37.796Z,15.03
2018-11-29T13:41:17.729Z,15.78
2018-11-29T13:45:57.809Z,16.10
2018-11-29T13:50:38.096Z,12.47
2018-11-29T13:55:18.247Z,14.35
2018-11-29T13:59:57.932Z,14.43
2018-11-29T14:04:37.796Z,12.95
2018-11-29T14:09:17.642Z,21.52
2018-11-29T14:13:58.862Z,13.40
2018-11-29T14:18:38.816Z,13.53
2018-11-29T14:23:18.609Z,15.00
2018-11-29T14:27:58.946Z,11.80
2018-11-29T14:32:38.932Z,11.78
2018-11-29T14:37:19.162Z,14.53
2018-11-29T14:41:58.972Z,11.83
2018-11-29T14:46:38.880Z,10.13
2018-11-29T14:51:18.914Z,11.15
2018-11-29T14:55:58.854Z,12.78
2018-11-29T15:00:40.304Z,12.85
2018-11-29T15:05:31.164Z,13.22
2018-11-29T15:10:11.173Z,12.33
2018-11-29T15:14:51.280Z,12.13
2018-11-29T15:19:31.398Z,12.50
2018-11-29T15:24:11.721Z,14.28
2018-11-29T15:28:52.324Z,11.45
2018-11-29T15:33:32.536Z,12.68
2018-11-29T15:38:13.302Z,16.47
2018-11-29T15:42:53.431Z,14.83
2018-11-29T15:47:33.555Z,14.50
2018-11-29T15:52:13.689Z,15.13
2018-11-29T15:56:53.561Z,31.17
2018-11-29T16:01:33.323Z,16.03
2018-11-29T16:06:13.251Z,23.00
2018-11-29T16:10:53.359Z,18.20
2018-11-29T16:15:33.516Z,22.03
2018-11-29T16:20:17.086Z,27.40
2018-11-29T16:24:56.421Z,26.13
2018-11-29T16:29:36.182Z,22.70
2018-11-29T16:34:16.552Z,27.57
2018-11-29T16:38:56.644Z,25.50
2018-11-29T16:43:37.196Z,30.23
2018-11-29T16:48:17.075Z,28.67
2018-11-29T16:52:57.333Z,22.43
2018-11-29T16:57:37.394Z,25.47
2018-11-29T17:02:17.435Z,24.80
2018-11-29T17:06:57.440Z,98.10
2018-11-29T17:11:37.522Z,30.40
2018-11-29T17:16:17.679Z,39.10
2018-11-29T17:20:57.788Z,84.60
2018-11-29T17:25:37.600Z,32.50
2018-11-29T17:30:25.685Z,26.53
2018-11-29T17:35:07.160Z,24.20
2018-11-29T17:39:47.000Z,33.97
2018-11-29T17:44:27.699Z,36.03
2018-11-29T17:49:08.167Z,38.23
2018-11-29T17:53:48.187Z,34.50
2018-11-29T17:58:27.980Z,36.07
2018-11-29T18:03:08.489Z,40.03
2018-11-29T18:07:48.568Z,42.60
2018-11-29T18:12:29.045Z,45.60
2018-11-29T18:17:09.315Z,28.57
2018-11-29T18:21:49.144Z,30.90
2018-11-29T18:26:29.127Z,29.50
2018-11-29T18:31:09.144Z,22.30
2018-11-29T18:35:48.936Z,22.97
2018-11-29T18:40:29.232Z,33.67
2018-11-29T18:45:14.667Z,28.70
2018-11-29T18:49:55.341Z,34.20
2018-11-29T18:54:35.316Z,49.87
2018-11-29T18:59:15.152Z,102.80
2018-11-29T19:03:55.136Z,48.97
2018-11-29T19:08:35.240Z,43.50
2018-11-29T19:13:15.809Z,37.00
2018-11-29T19:17:55.924Z,31.63
2018-11-29T19:22:36.336Z,30.80
2018-11-29T19:27:16.504Z,32.47
2018-11-29T19:31:56.665Z,131.57
2018-11-29T19:36:36.601Z,30.90
2018-11-29T19:41:17.600Z,34.33
2018-11-29T19:45:58.671Z,32.83
2018-11-29T19:50:38.740Z,52.43
2018-11-29T19:55:20.165Z,48.53
2018-11-29T20:00:00.744Z,35.87
2018-11-29T20:04:41.713Z,45.20
2018-11-29T20:09:21.577Z,32.37
2018-11-29T20:14:01.643Z,28.43
2018-11-29T20:18:42.260Z,34.43
2018-11-29T20:23:22.697Z,35.67
2018-11-29T20:28:02.669Z,40.93
2018-11-29T20:32:42.634Z,72.07
2018-11-29T20:37:22.704Z,52.83
2018-11-29T20:42:02.944Z,53.70
2018-11-29T20:46:42.801Z,38.73
2018-11-29T20:51:23.081Z,45.67
2018-11-29T20:56:03.682Z,36.23
2018-11-29T21:00:43.584Z,31.57
2018-11-29T21:05:24.444Z,36.63
2018-11-29T21:10:06.207Z,27.30
2018-11-29T21:14:46.540Z,20.00
2018-11-29T21:19:26.280Z,26.90
2018-11-29T21:24:06.600Z,19.13
2018-11-29T21:28:46.915Z,18.63
2018-11-29T21:33:27.116Z,32.83
2018-11-29T21:38:13.116Z,32.53
2018-11-29T21:42:54.307Z,20.93
2018-11-29T21:47:34.756Z,33.17
2018-11-29T21:52:14.540Z,24.47
2018-11-29T21:56:55.001Z,16.80
2018-11-29T22:01:35.070Z,16.40
2018-11-29T22:06:15.033Z,16.50
2018-11-29T22:10:54.900Z,20.10
2018-11-29T22:15:34.582Z,22.23
2018-11-29T22:20:14.536Z,24.37
2018-11-29T22:24:54.572Z,24.53
2018-11-29T22:29:35.113Z,25.37
2018-11-29T22:34:15.464Z,24.57
2018-11-29T22:38:55.257Z,24.93
2018-11-29T22:43:35.089Z,48.97
2018-11-29T22:48:15.448Z,74.70
2018-11-29T22:52:55.816Z,49.53
2018-11-29T22:57:35.812Z,46.40
2018-11-29T23:02:15.827Z,53.30
2018-11-29T23:06:56.037Z,59.77
2018-11-29T23:11:35.887Z,51.53
2018-11-29T23:16:16.034Z,62.63
2018-11-29T23:20:55.984Z,67.07
2018-11-29T23:25:36.201Z,43.03
2018-11-29T23:30:17.161Z,28.30
2018-11-29T23:34:57.256Z,23.13
2018-11-29T23:39:37.328Z,21.57
2018-11-29T23:44:17.193Z,28.80
2018-11-29T23:48:57.171Z,26.23
2018-11-29T23:53:37.266Z,19.03
2018-11-29T23:58:17.665Z,28.13
